Time;durP1;ratioP1;P1;durP2;ratioP2;P2;SDS_P1;SDS_P2;PMS_P1;PMS_P2;Temp;Humidity;BMP_temperature;BMP_pressure;BME280_temperature;BME280_humidity;BME280_pressure;Samples;Min_cycle;Max_cycle;Signal;HPM_P1;HPM_P2
2022/08/11 00:00:13;;;;;;;796.35;737.60;;;;;;;24.11;37.96;101966.47;691700;28;136293;-56
2022/08/11 00:00:38;;;;;;;804.25;745.25;;;;;;;24.11;38.30;101965.66;693317;28;92467;-53
2022/08/11 00:01:05;;;;;;;809.05;749.90;;;;;;;24.11;37.99;101971.16;691688;28;138192;-52
2022/08/11 00:01:27;;;;;;;801.13;742.22;;;;;;;24.11;38.19;101966.47;691519;28;136431;-54
2022/08/11 00:01:51;;;;;;;798.05;739.15;;;;;;;24.11;38.16;101960.94;694071;28;46295;-55
2022/08/11 00:02:12;;;;;;;814.08;754.67;;;;;;;24.10;37.99;101970.31;693224;28;93323;-55
2022/08/11 00:02:35;;;;;;;820.58;760.95;;;;;;;24.11;38.11;101966.47;693039;28;1988;-54
2022/08/11 00:03:04;;;;;;;822.83;763.15;;;;;;;24.11;38.04;101962.88;691099;28;69408;-55
2022/08/11 00:03:27;;;;;;;812.65;753.33;;;;;;;24.12;38.08;101972.81;686103;28;137964;-51
2022/08/11 00:03:52;;;;;;;816.80;757.30;;;;;;;24.11;38.21;101973.91;688401;28;67258;-59
2022/08/11 00:04:14;;;;;;;818.60;759.00;;;;;;;24.13;38.04;101970.94;685753;28;113579;-56
2022/08/11 00:04:38;;;;;;;819.28;759.75;;;;;;;24.13;38.24;101973.69;691066;28;69451;-51
2022/08/11 00:05:06;;;;;;;805.58;746.47;;;;;;;24.11;37.98;101972.00;685101;28;89589;-52
2022/08/11 00:05:27;;;;;;;802.63;743.63;;;;;;;24.11;38.11;101969.22;683099;28;138250;-55
2022/08/11 00:05:51;;;;;;;806.92;747.83;;;;;;;24.11;38.15;101973.91;686679;28;46355;-58
2022/08/11 00:06:13;;;;;;;807.20;748.20;;;;;;;24.11;38.20;101974.75;684964;28;93002;-55
2022/08/11 00:06:38;;;;;;;803.25;744.38;;;;;;;24.11;38.12;101969.22;686413;28;44406;-57
2022/08/11 00:07:01;;;;;;;798.97;739.97;;;;;;;24.11;38.19;101969.22;686337;28;135460;-53
2022/08/11 00:07:23;;;;;;;803.70;744.58;;;;;;;24.11;37.85;101969.22;690214;28;92253;-54
2022/08/11 00:07:50;;;;;;;800.90;742.00;;;;;;;24.11;38.07;101969.22;694158;28;39719;-54
2022/08/11 00:08:20;;;;;;;799.33;740.47;;;;;;;24.08;38.17;101966.94;691209;28;135886;-55
2022/08/11 00:08:42;;;;;;;799.00;740.15;;;;;;;24.10;38.22;101975.81;691435;28;138455;-55
2022/08/11 00:09:06;;;;;;;808.60;749.47;;;;;;;24.08;38.08;101966.94;694751;28;45248;-53
2022/08/11 00:09:33;;;;;;;803.72;744.75;;;;;;;24.08;38.23;101966.94;693327;28;92285;-50
2022/08/11 00:09:55;;;;;;;793.75;735.13;;;;;;;24.09;38.10;101970.53;691734;28;138317;-51
2022/08/11 00:10:17;;;;;;;775.40;717.35;;;;;;;24.08;38.18;101964.19;695821;28;23542;-51
2022/08/11 00:10:39;;;;;;;780.33;722.25;;;;;;;24.08;38.22;101963.34;691329;28;69261;-55
2022/08/11 00:11:03;;;;;;;788.33;729.80;;;;;;;24.07;38.25;101965.25;692031;28;44543;-53
2022/08/11 00:11:32;;;;;;;796.15;737.40;;;;;;;24.07;38.09;101965.25;690597;28;92240;-54
2022/08/11 00:11:56;;;;;;;793.45;734.75;;;;;;;24.06;38.09;101969.13;688015;28;138887;-52
2022/08/11 00:12:17;;;;;;;795.47;736.67;;;;;;;24.07;37.91;101964.44;691346;28;67604;-54
2022/08/11 00:12:42;;;;;;;803.40;744.45;;;;;;;24.06;38.16;101959.97;692284;28;46329;-54
2022/08/11 00:13:06;;;;;;;808.35;749.25;;;;;;;24.06;38.46;101969.13;689659;28;115869;-55
2022/08/11 00:13:31;;;;;;;805.33;746.30;;;;;;;24.07;38.34;101964.44;690696;28;91224;-54
2022/08/11 00:13:53;;;;;;;800.67;741.85;;;;;;;24.08;38.34;101969.72;691643;28;138147;-55
2022/08/11 00:14:17;;;;;;;807.50;748.42;;;;;;;24.08;37.95;101963.34;695761;28;21522;-55
2022/08/11 00:14:38;;;;;;;815.83;756.42;;;;;;;24.08;38.26;101969.72;693368;28;90919;-53
2022/08/11 00:15:01;;;;;;;813.78;754.38;;;;;;;24.07;38.33;101965.25;694728;28;43992;-55
2022/08/11 00:15:23;;;;;;;804.95;745.75;;;;;;;24.06;38.16;101968.25;694494;28;44767;-55
2022/08/11 00:15:46;;;;;;;795.20;736.38;;;;;;;24.07;38.26;101961.66;695135;28;22384;-54
2022/08/11 00:16:11;;;;;;;792.88;734.17;;;;;;;24.03;38.38;101958.56;694049;28;69456;-56
2022/08/11 00:16:33;;;;;;;794.67;735.97;;;;;;;24.06;38.26;101962.72;688649;28;138148;-55
2022/08/11 00:16:57;;;;;;;796.67;737.88;;;;;;;24.02;38.07;101959.63;690503;28;45145;-57
2022/08/11 00:17:18;;;;;;;794.35;735.55;;;;;;;24.01;38.44;101959.84;690165;28;92273;-52
2022/08/11 00:17:39;;;;;;;801.10;742.17;;;;;;;24.00;38.32;101956.25;692726;28;21497;-55
2022/08/11 00:18:03;;;;;;;806.58;747.47;;;;;;;24.01;38.12;101963.47;691927;28;45309;-51
2022/08/11 00:18:25;;;;;;;808.70;749.60;;;;;;;24.00;38.23;101961.78;692449;28;70243;-53
2022/08/11 00:18:51;;;;;;;806.33;747.28;;;;;;;23.99;38.47;101962.84;694770;28;46303;-55
2022/08/11 00:19:20;;;;;;;798.85;739.97;;;;;;;23.99;38.71;101959.25;691708;28;136401;-52
2022/08/11 00:19:44;;;;;;;801.90;742.97;;;;;;;23.97;38.48;101966.94;688022;28;135127;-54
2022/08/11 00:20:09;;;;;;;794.58;735.78;;;;;;;23.97;38.37;101969.72;690309;28;92276;-57
2022/08/11 00:20:31;;;;;;;791.28;732.65;;;;;;;23.96;38.48;101968.84;689430;28;115131;-51
2022/08/11 00:20:57;;;;;;;792.10;733.33;;;;;;;23.94;38.31;101971.00;691726;28;46314;-55
2022/08/11 00:21:20;;;;;;;794.28;735.58;;;;;;;23.92;38.49;101971.25;688702;28;137975;-53
2022/08/11 00:21:42;;;;;;;797.08;738.28;;;;;;;23.89;38.49;101965.38;692606;28;67503;-52
2022/08/11 00:22:05;;;;;;;797.72;738.90;;;;;;;23.89;38.33;101965.38;694854;28;46425;-55
2022/08/11 00:22:28;;;;;;;803.45;744.55;;;;;;;23.89;38.41;101968.13;694099;28;69407;-53
2022/08/11 00:22:50;;;;;;;801.00;742.03;;;;;;;23.87;38.56;101973.88;693966;28;69933;-57
2022/08/11 00:23:15;;;;;;;803.85;744.80;;;;;;;23.87;38.39;101970.25;694824;28;46415;-53
2022/08/11 00:23:41;;;;;;;804.05;745.05;;;;;;;23.84;38.79;101973.50;689763;28;113436;-52
2022/08/11 00:24:03;;;;;;;814.33;754.85;;;;;;;23.82;38.56;101967.34;688450;28;138071;-57
2022/08/11 00:24:25;;;;;;;816.00;756.47;;;;;;;23.81;38.64;101971.16;692186;28;46293;-52
2022/08/11 00:24:47;;;;;;;815.00;755.65;;;;;;;23.80;38.65;101966.75;692031;28;46299;-53
2022/08/11 00:25:10;;;;;;;805.58;746.38;;;;;;;23.80;38.60;101975.03;694360;28;47192;-53
2022/08/11 00:25:36;;;;;;;813.55;754.15;;;;;;;23.77;38.45;101961.72;693906;28;68288;-57
2022/08/11 00:25:59;;;;;;;803.10;744.05;;;;;;;23.78;38.53;101968.88;691408;28;138679;-55
2022/08/11 00:26:21;;;;;;;796.80;737.90;;;;;;;23.78;38.77;101967.00;694076;28;69591;-51
2022/08/11 00:26:47;;;;;;;809.63;750.35;;;;;;;23.77;38.86;101965.28;694156;28;33935;-53
2022/08/11 00:27:08;;;;;;;807.42;748.13;;;;;;;23.78;38.65;101967.00;691261;28;136410;-55
2022/08/11 00:27:33;;;;;;;810.92;751.63;;;;;;;23.79;38.66;101965.88;694406;28;45466;-54
2022/08/11 00:27:55;;;;;;;802.95;743.92;;;;;;;23.76;38.87;101966.38;692866;28;92262;-53
2022/08/11 00:28:24;;;;;;;808.47;749.22;;;;;;;23.79;38.61;101970.56;694728;28;44390;-55
2022/08/11 00:28:45;;;;;;;813.67;754.28;;;;;;;23.79;38.61;101967.81;691336;28;137482;-54
2022/08/11 00:29:09;;;;;;;814.00;754.50;;;;;;;23.78;38.81;101967.00;695186;28;23539;-54
2022/08/11 00:29:32;;;;;;;817.95;758.42;;;;;;;23.78;38.82;101966.13;692283;28;113609;-53
2022/08/11 00:29:54;;;;;;;808.20;748.85;;;;;;;23.79;38.68;101967.81;695129;28;69339;-54
2022/08/11 00:30:15;;;;;;;805.97;746.72;;;;;;;23.77;38.81;101965.28;696200;28;23461;-53
2022/08/11 00:30:38;;;;;;;806.22;747.13;;;;;;;23.75;38.88;101972.97;694917;28;42712;-53
2022/08/11 00:31:04;;;;;;;803.50;744.60;;;;;;;23.70;38.87;101964.56;694686;28;46323;-52
2022/08/11 00:31:30;;;;;;;801.15;742.33;;;;;;;23.73;39.13;101966.84;691618;28;137835;-54
2022/08/11 00:31:52;;;;;;;804.00;745.03;;;;;;;23.71;39.01;101967.06;690702;28;138127;-55
2022/08/11 00:32:14;;;;;;;793.95;735.30;;;;;;;23.70;38.69;101970.09;694023;28;69432;-57
2022/08/11 00:32:38;;;;;;;794.20;735.55;;;;;;;23.68;38.90;101958.44;695549;28;22203;-55
2022/08/11 00:32:59;;;;;;;789.78;731.17;;;;;;;23.67;38.85;101968.63;692713;28;92042;-54
2022/08/11 00:33:22;;;;;;;790.85;732.25;;;;;;;23.66;39.11;101968.88;695610;28;22390;-55
2022/08/11 00:33:44;;;;;;;794.47;735.85;;;;;;;23.64;39.13;101966.34;689989;28;91398;-54
2022/08/11 00:34:10;;;;;;;791.40;732.80;;;;;;;23.62;38.94;101963.00;691827;28;46295;-55
2022/08/11 00:34:35;;;;;;;793.95;735.25;;;;;;;23.60;38.96;101964.28;689586;28;113854;-55
2022/08/11 00:34:56;;;;;;;796.47;737.67;;;;;;;23.57;39.22;101969.22;688903;28;115335;-55
2022/08/11 00:35:23;;;;;;;797.72;738.88;;;;;;;23.57;39.04;101968.34;691504;28;45241;-57
2022/08/11 00:35:45;;;;;;;801.90;742.92;;;;;;;23.56;39.35;101966.69;691068;28;137919;-53
2022/08/11 00:36:09;;;;;;;798.10;739.28;;;;;;;23.55;39.22;101976.84;694858;28;46358;-55
2022/08/11 00:36:38;;;;;;;803.90;744.88;;;;;;;23.53;39.47;101967.97;693068;28;93278;-53
2022/08/11 00:37:03;;;;;;;801.65;742.58;;;;;;;23.53;39.31;101969.91;688978;28;180197;-56
2022/08/11 00:37:25;;;;;;;802.92;743.88;;;;;;;23.52;39.33;101968.22;692328;28;113255;-53
2022/08/11 00:37:48;;;;;;;795.38;736.58;;;;;;;23.52;39.13;101968.22;691281;28;69553;-58
2022/08/11 00:38:09;;;;;;;794.08;735.38;;;;;;;23.49;39.28;101971.44;694679;28;45501;-54
2022/08/11 00:38:36;;;;;;;794.20;735.50;;;;;;;23.49;39.49;101975.03;694853;28;46290;-55
2022/08/11 00:39:04;;;;;;;792.22;733.40;;;;;;;23.45;39.61;101975.72;690347;28;161893;-54
2022/08/11 00:39:26;;;;;;;789.42;730.78;;;;;;;23.40;39.78;101976.44;687225;28;102187;-56
2022/08/11 00:39:49;;;;;;;788.67;730.08;;;;;;;23.39;39.41;101972.84;690748;28;46480;-54
2022/08/11 00:40:17;;;;;;;800.65;741.65;;;;;;;23.35;39.60;101971.66;691153;28;69429;-52
2022/08/11 00:40:43;;;;;;;798.33;739.42;;;;;;;23.41;39.62;101975.38;687878;28;159214;-51
2022/08/11 00:41:15;;;;;;;798.60;739.70;;;;;;;23.39;39.45;101972.84;688713;28;138168;-51
2022/08/11 00:41:41;;;;;;;794.97;736.22;;;;;;;23.42;39.71;101977.06;691632;28;137833;-54
2022/08/11 00:42:14;;;;;;;798.60;739.70;;;;;;;23.43;39.56;101980.66;690077;28;157872;-55
2022/08/11 00:42:45;;;;;;;793.58;734.88;;;;;;;23.44;39.52;101971.31;688148;28;137977;-55
2022/08/11 00:43:16;;;;;;;789.67;731.08;;;;;;;23.42;39.53;101967.94;688593;28;136124;-56
2022/08/11 00:43:50;;;;;;;784.35;725.92;;;;;;;23.45;39.67;101972.97;688755;28;137601;-51
2022/08/11 00:44:28;;;;;;;784.28;725.72;;;;;;;23.43;39.61;101978.72;687841;28;160566;-57
2022/08/11 00:45:03;;;;;;;782.15;723.83;;;;;;;23.46;39.37;101974.66;688084;28;160475;-57
2022/08/11 00:45:28;;;;;;;782.33;724.03;;;;;;;23.44;39.36;101974.91;688768;28;138554;-55
2022/08/11 00:46:10;;;;;;;767.55;709.72;;;;;;;23.44;39.59;101972.16;688843;28;136273;-56
2022/08/11 00:46:42;;;;;;;799.58;740.67;;;;;;;23.44;39.34;101969.38;688350;28;135733;-52
2022/08/11 00:47:14;;;;;;;798.83;739.85;;;;;;;23.43;39.66;101975.13;686568;28;157280;-55
2022/08/11 00:47:43;;;;;;;793.83;735.08;;;;;;;23.42;39.52;101970.69;688814;28;137754;-52
2022/08/11 00:48:10;;;;;;;794.28;735.47;;;;;;;23.40;39.57;101970.91;689598;28;114488;-57
2022/08/11 00:48:38;;;;;;;791.13;732.42;;;;;;;23.38;39.70;101965.63;688844;28;138047;-52
2022/08/11 00:49:10;;;;;;;791.35;732.60;;;;;;;23.39;39.70;101969.25;687904;28;159315;-55
2022/08/11 00:49:42;;;;;;;786.05;727.53;;;;;;;23.40;39.47;101959.88;688853;28;138385;-54
2022/08/11 00:50:17;;;;;;;798.13;739.22;;;;;;;23.34;39.67;101961.69;687123;28;98448;-59
2022/08/11 00:50:48;;;;;;;795.40;736.55;;;;;;;23.36;39.73;101967.78;685916;28;136097;-57
2022/08/11 00:51:15;;;;;;;799.90;741.00;;;;;;;23.34;39.63;101969.94;685961;28;136088;-59
2022/08/11 00:51:48;;;;;;;795.05;736.28;;;;;;;23.32;39.61;101962.97;686042;28;137524;-58
2022/08/11 00:52:19;;;;;;;796.88;737.97;;;;;;;23.31;39.69;101970.41;687623;28;157275;-56
2022/08/11 00:53:07;;;;;;;797.22;738.35;;;;;;;23.31;39.52;101972.34;688816;28;137452;-59
2022/08/11 00:53:41;;;;;;;799.45;740.53;;;;;;;23.32;39.54;101971.25;688894;28;137569;-57
2022/08/11 00:54:08;;;;;;;794.45;735.65;;;;;;;23.32;39.74;101974.88;688503;28;135836;-58
2022/08/11 00:54:45;;;;;;;796.13;737.30;;;;;;;23.32;39.77;101974.88;693450;28;69742;-59
2022/08/11 00:55:42;;;;;;;790.50;731.80;;;;;;;23.31;39.79;101969.59;691481;28;137586;-58
2022/08/11 00:56:28;;;;;;;794.88;736.03;;;;;;;23.30;39.63;101976.16;691413;28;135984;-58
2022/08/11 00:57:27;;;;;;;791.53;732.75;;;;;;;23.24;39.76;101971.56;687193;28;137683;-57
2022/08/11 00:58:35;;;;;;;795.63;736.83;;;;;;;23.22;39.98;101971.81;688264;28;137781;-57
2022/08/11 00:59:20;;;;;;;787.58;728.92;;;;;;;23.23;40.07;101975.41;691422;28;137737;-58
2022/08/11 01:00:00;;;;;;;789.60;730.90;;;;;;;23.23;40.13;101972.63;688794;28;137715;-58
2022/08/11 01:00:23;;;;;;;794.67;735.88;;;;;;;23.22;40.13;101966.28;689873;28;158902;-58
2022/08/11 01:01:06;;;;;;;802.88;743.85;;;;;;;23.20;40.09;101971.22;693588;28;67485;-59
2022/08/11 01:01:42;;;;;;;800.67;741.67;;;;;;;23.20;39.88;101980.31;691655;28;136016;-54
2022/08/11 01:02:15;;;;;;;794.33;735.42;;;;;;;23.18;40.02;101971.44;690112;28;156307;-58
2022/08/11 01:03:17;;;;;;;799.65;740.65;;;;;;;23.18;39.99;101978.84;691596;28;136007;-56
2022/08/11 01:04:00;;;;;;;792.30;733.50;;;;;;;23.21;39.93;101972.88;688424;28;88940;-59
2022/08/11 01:04:59;;;;;;;809.10;749.72;;;;;;;23.22;39.83;101969.06;688876;28;136068;-58
2022/08/11 01:06:00;;;;;;;821.88;762.08;;;;;;;23.23;39.99;101975.41;688502;28;137662;-57
2022/08/11 01:06:40;;;;;;;821.50;761.80;;;;;;;23.19;39.95;101969.50;689346;28;125860;-60
2022/08/11 01:07:39;;;;;;;823.25;763.35;;;;;;;23.17;39.78;101978.00;686656;28;157901;-59
2022/08/11 01:08:37;;;;;;;809.63;750.22;;;;;;;23.14;39.82;101975.72;690638;28;138388;-58
2022/08/11 01:09:27;;;;;;;795.67;736.70;;;;;;;23.13;40.14;101976.78;690010;28;137640;-59
2022/08/11 01:10:06;;;;;;;791.25;732.55;;;;;;;23.13;40.12;101973.19;684200;28;137281;-59
2022/08/11 01:10:47;;;;;;;804.88;745.78;;;;;;;23.13;40.17;101976.78;688090;28;158921;-58
2022/08/11 01:11:34;;;;;;;807.92;748.72;;;;;;;23.12;40.24;101974.25;688809;28;137587;-58
2022/08/11 01:12:20;;;;;;;802.30;743.17;;;;;;;23.02;40.39;101975.63;687970;28;136008;-59
2022/08/11 01:12:50;;;;;;;797.28;738.38;;;;;;;23.06;40.40;101975.16;684908;28;135981;-58
2022/08/11 01:13:17;;;;;;;808.25;748.95;;;;;;;22.99;40.53;101961.47;686545;28;136213;-58
2022/08/11 01:14:06;;;;;;;791.17;732.45;;;;;;;23.06;40.49;101972.38;685811;28;137982;-57
2022/08/11 01:15:07;;;;;;;790.90;732.20;;;;;;;23.07;40.51;101971.31;686402;28;137726;-57
2022/08/11 01:15:48;;;;;;;802.35;743.30;;;;;;;23.08;40.31;101975.78;680077;28;137378;-59
2022/08/11 01:16:52;;;;;;;791.47;732.67;;;;;;;23.04;40.56;101973.47;681552;28;136289;-59
2022/08/11 01:17:59;;;;;;;803.03;743.83;;;;;;;23.02;40.59;101975.63;676140;29;157154;-58
2022/08/11 01:19:05;;;;;;;793.85;735.00;;;;;;;22.98;40.64;101977.16;680411;28;137719;-59
2022/08/11 01:19:47;;;;;;;804.72;745.42;;;;;;;22.94;40.84;101975.09;690314;28;61100;-59
2022/08/11 01:20:17;;;;;;;798.00;738.92;;;;;;;22.92;40.75;101972.56;689310;28;82139;-59
2022/08/11 01:21:24;;;;;;;800.80;741.70;;;;;;;22.91;40.66;101970.88;689049;28;138530;-58
2022/08/11 01:22:19;;;;;;;809.90;750.63;;;;;;;22.85;40.82;101975.41;673082;29;139073;-56
2022/08/11 01:23:35;;;;;;;794.03;735.22;;;;;;;22.82;40.85;101969.50;682940;28;137429;-58
2022/08/11 01:24:26;;;;;;;797.72;738.72;;;;;;;22.82;40.93;101975.00;677019;29;137567;-58
2022/08/11 01:25:04;;;;;;;802.03;742.90;;;;;;;22.73;40.66;101970.84;676782;29;160638;-57
2022/08/11 01:26:00;;;;;;;798.70;739.70;;;;;;;22.74;40.88;101973.38;680270;29;61922;-58
2022/08/11 01:27:17;;;;;;;809.60;750.20;;;;;;;22.69;41.04;101981.50;677308;29;136488;-59
2022/08/11 01:28:13;;;;;;;816.28;756.80;;;;;;;22.68;40.99;101977.09;687470;28;157346;-58
2022/08/11 01:29:10;;;;;;;818.90;759.33;;;;;;;22.65;41.08;101980.28;688778;28;137568;-59
2022/08/11 01:30:04;;;;;;;820.05;760.47;;;;;;;22.66;41.05;101977.31;688693;28;136258;-59
2022/08/11 01:30:46;;;;;;;803.55;744.42;;;;;;;22.67;41.09;101972.63;688630;28;137517;-58
2022/08/11 01:31:37;;;;;;;813.92;754.45;;;;;;;22.68;41.23;101979.84;688736;28;137939;-60
2022/08/11 01:32:13;;;;;;;821.80;762.10;;;;;;;22.70;41.23;101985.13;687014;28;160562;-57
2022/08/11 01:33:19;;;;;;;824.05;764.45;;;;;;;22.70;41.40;101982.38;690985;28;137832;-58
2022/08/11 01:34:19;;;;;;;825.95;766.20;;;;;;;22.68;41.54;101977.09;688867;28;137584;-58
2022/08/11 01:35:17;;;;;;;815.13;755.67;;;;;;;22.66;41.57;101980.06;688948;28;135997;-58
2022/08/11 01:36:27;;;;;;;833.30;773.35;;;;;;;22.66;41.36;101980.06;687996;28;160639;-57
2022/08/11 01:36:58;;;;;;;826.33;766.53;;;;;;;22.65;41.49;101981.13;687786;28;137544;-59
2022/08/11 01:37:36;;;;;;;847.03;786.47;;;;;;;22.58;41.62;101968.50;688685;28;138062;-58
2022/08/11 01:38:34;;;;;;;833.30;773.27;;;;;;;22.62;41.45;101983.50;690509;28;137458;-59
2022/08/11 01:39:12;;;;;;;830.22;770.33;;;;;;;22.61;41.62;101981.81;691235;28;137375;-60
2022/08/11 01:40:17;;;;;;;830.83;770.92;;;;;;;22.60;41.45;101975.47;690506;28;137262;-58
2022/08/11 01:41:08;;;;;;;832.05;772.15;;;;;;;22.59;41.45;101976.53;691409;28;138340;-59
2022/08/11 01:45:06;;;;;;;818.63;759.03;;;;;;;22.54;41.64;101981.88;682992;28;136420;-57
2022/08/11 01:45:36;;;;;;;816.10;756.50;;;;;;;22.52;41.49;101980.41;689425;28;109235;-57
2022/08/11 01:46:00;;;;;;;825.50;765.60;;;;;;;22.48;41.56;101983.63;688369;28;137977;-57
2022/08/11 01:46:28;;;;;;;828.35;768.35;;;;;;;22.46;41.56;101988.53;689372;28;115168;-58
2022/08/11 01:46:51;;;;;;;831.40;771.20;;;;;;;22.47;41.61;101986.59;689567;28;137537;-59
2022/08/11 01:48:02;;;;;;;830.88;770.78;;;;;;;22.46;41.57;101982.16;690491;28;137721;-59
2022/08/11 01:48:34;;;;;;;824.30;764.45;;;;;;;22.46;41.52;101984.91;691480;28;138354;-56
2022/08/11 01:49:02;;;;;;;802.85;743.65;;;;;;;22.47;41.63;101983.84;691266;28;137830;-57
2022/08/11 01:49:29;;;;;;;811.97;752.63;;;;;;;22.47;41.57;101983.84;691481;28;137517;-60
2022/08/11 01:50:00;;;;;;;812.42;752.95;;;;;;;22.45;41.53;101983.25;691194;28;136569;-57
2022/08/11 01:50:31;;;;;;;811.72;752.30;;;;;;;22.47;41.45;101981.09;688617;28;137792;-59
2022/08/11 01:51:16;;;;;;;807.05;747.72;;;;;;;22.47;41.58;101975.59;688433;28;136066;-59
2022/08/11 01:51:52;;;;;;;808.95;749.65;;;;;;;22.46;41.42;101985.75;687935;28;160716;-60
2022/08/11 01:52:21;;;;;;;814.90;755.42;;;;;;;22.47;41.48;101983.84;687614;28;157998;-57
2022/08/11 01:52:57;;;;;;;802.15;743.08;;;;;;;22.46;41.58;101980.25;688695;28;138189;-55
2022/08/11 01:53:27;;;;;;;803.38;744.25;;;;;;;22.44;41.59;101976.03;688745;28;137739;-58
2022/08/11 01:54:00;;;;;;;802.35;743.25;;;;;;;22.45;42.04;101984.06;688686;28;135748;-59
2022/08/11 01:54:27;;;;;;;804.92;745.70;;;;;;;22.45;41.61;101983.25;691141;28;61007;-58
2022/08/11 01:55:06;;;;;;;808.05;748.75;;;;;;;22.43;41.82;101977.97;688796;28;138035;-57
2022/08/11 01:55:33;;;;;;;808.88;749.58;;;;;;;22.41;41.69;101982.00;691758;28;129774;-59
2022/08/11 01:56:05;;;;;;;797.03;738.03;;;;;;;22.40;41.57;101983.91;691367;28;138234;-55
2022/08/11 01:56:49;;;;;;;797.58;738.58;;;;;;;22.40;41.86;101983.91;692374;28;113923;-57
2022/08/11 01:57:19;;;;;;;811.80;752.20;;;;;;;22.37;42.04;101980.78;689239;28;156289;-57
2022/08/11 01:57:54;;;;;;;802.50;743.47;;;;;;;22.36;42.15;101973.59;694077;28;59871;-59
2022/08/11 01:58:22;;;;;;;808.50;749.22;;;;;;;22.36;42.18;101977.16;691396;28;136281;-58
2022/08/11 01:58:47;;;;;;;815.00;755.60;;;;;;;22.35;42.23;101978.25;691456;28;137779;-59
2022/08/11 01:59:15;;;;;;;814.17;754.78;;;;;;;22.36;42.18;101979.09;692046;28;114294;-58
2022/08/11 01:59:48;;;;;;;801.92;742.80;;;;;;;22.35;42.08;101983.75;690793;28;160959;-56
2022/08/11 02:00:13;;;;;;;806.58;747.30;;;;;;;22.34;42.14;101984.81;691767;28;138069;-59
2022/08/11 02:00:44;;;;;;;806.85;747.65;;;;;;;22.33;42.00;101982.28;693072;28;93145;-58
2022/08/11 02:01:15;;;;;;;811.72;752.38;;;;;;;22.33;42.09;101979.53;691512;28;137764;-58
2022/08/11 02:01:45;;;;;;;813.50;754.00;;;;;;;22.30;42.04;101976.19;691762;28;137481;-58
2022/08/11 02:02:44;;;;;;;812.67;753.17;;;;;;;22.30;42.13;101978.94;690249;28;157540;-59
2022/08/11 02:03:12;;;;;;;803.53;744.33;;;;;;;22.28;41.97;101983.75;690302;28;161292;-58
2022/08/11 02:03:40;;;;;;;811.20;751.80;;;;;;;22.28;42.09;101982.94;691700;28;135430;-60
2022/08/11 02:04:12;;;;;;;800.63;741.50;;;;;;;22.25;41.96;101980.63;691659;28;137744;-58
2022/08/11 02:04:36;;;;;;;822.88;763.22;;;;;;;22.24;42.08;101982.53;691510;28;137434;-62
2022/08/11 02:05:02;;;;;;;810.55;751.15;;;;;;;22.22;42.07;101976.41;694253;28;52344;-61
2022/08/11 02:05:35;;;;;;;810.92;751.53;;;;;;;22.22;42.15;101979.16;688047;28;137704;-59
2022/08/11 02:06:53;;;;;;;814.83;755.33;;;;;;;22.22;41.92;101984.66;688467;28;136462;-58
2022/08/11 02:06:55;;;;;;;815.15;755.65;;;;;;;22.20;41.97;101978.56;684925;28;136013;-58
2022/08/11 02:07:20;;;;;;;816.53;756.85;;;;;;;22.22;42.11;101981.91;687031;28;136024;-59
2022/08/11 02:07:53;;;;;;;817.30;757.80;;;;;;;22.22;42.13;101973.66;691333;28;114924;-59
2022/08/11 02:08:28;;;;;;;814.55;755.08;;;;;;;22.20;42.33;101977.72;691378;28;137690;-59
2022/08/11 02:08:58;;;;;;;827.72;767.88;;;;;;;22.19;42.37;101979.59;691372;28;138601;-59
2022/08/11 02:09:45;;;;;;;833.80;773.70;;;;;;;22.19;42.29;101973.28;691183;28;136240;-58
2022/08/11 02:11:33;;;;;;;829.08;769.15;;;;;;;22.17;42.44;101976.25;691216;28;137687;-59
2022/08/11 02:12:02;;;;;;;834.40;774.28;;;;;;;22.14;42.49;101972.03;693094;28;62359;-57
2022/08/11 02:12:40;;;;;;;828.57;768.73;;;;;;;22.13;42.46;101973.13;691489;28;137924;-57
2022/08/11 02:13:10;;;;;;;824.38;764.58;;;;;;;22.14;42.47;101973.94;691308;28;137704;-58
2022/08/11 02:13:36;;;;;;;840.38;780.20;;;;;;;22.10;42.56;101968.06;691440;28;137550;-55
2022/08/11 02:14:03;;;;;;;830.75;770.75;;;;;;;22.07;42.46;101964.88;690490;28;138789;-57
2022/08/11 02:14:30;;;;;;;822.65;762.95;;;;;;;22.13;42.70;101972.25;691245;28;138794;-57
2022/08/11 02:14:59;;;;;;;830.67;770.78;;;;;;;22.12;42.45;101970.59;690580;28;160930;-58
2022/08/11 02:15:28;;;;;;;827.05;767.17;;;;;;;22.13;42.41;101980.50;691194;28;137639;-58
2022/08/11 02:15:50;;;;;;;832.58;772.65;;;;;;;22.11;42.43;101974.41;691207;28;138237;-58
2022/08/11 02:16:17;;;;;;;835.85;775.75;;;;;;;22.13;42.37;101975.88;694545;28;46347;-55
2022/08/11 02:17:02;;;;;;;832.13;772.22;;;;;;;22.12;42.38;101973.34;691459;28;136839;-56
2022/08/11 02:17:37;;;;;;;836.10;775.90;;;;;;;22.13;42.54;101969.50;679944;28;157235;-55
2022/08/11 02:18:04;;;;;;;848.47;787.97;;;;;;;22.09;42.50;101965.53;691192;28;137806;-56
2022/08/11 02:24:04;;;;;;;832.42;772.45;;;;;;;22.09;42.62;101977.38;688607;28;135993;-59
2022/08/11 02:24:30;;;;;;;829.92;769.95;;;;;;;22.09;42.37;101976.53;688307;28;138144;-58
2022/08/11 02:24:59;;;;;;;840.28;779.95;;;;;;;22.08;42.58;101963.84;688565;28;138002;-57
2022/08/11 02:25:28;;;;;;;857.08;796.20;;;;;;;22.07;42.40;101976.75;688639;28;137927;-56
2022/08/11 02:25:53;;;;;;;846.78;786.28;;;;;;;22.07;42.47;101971.25;689805;28;137759;-56
2022/08/11 02:26:19;;;;;;;823.78;764.05;;;;;;;22.05;42.33;101964.28;692867;28;92753;-57
2022/08/11 02:26:46;;;;;;;828.28;768.47;;;;;;;22.06;42.35;101976.97;690684;28;138017;-58
2022/08/11 02:27:15;;;;;;;831.67;771.63;;;;;;;22.03;42.41;101971.94;690080;28;160038;-56
2022/08/11 02:27:40;;;;;;;831.47;771.58;;;;;;;22.02;42.41;101973.84;691494;28;136044;-58
2022/08/11 02:28:08;;;;;;;823.28;763.55;;;;;;;22.02;42.45;101970.22;692152;28;113561;-57
2022/08/11 02:28:37;;;;;;;828.95;769.03;;;;;;;22.01;42.31;101974.06;691443;28;136228;-58
2022/08/11 02:29:04;;;;;;;831.22;771.17;;;;;;;22.01;42.37;101968.56;687577;28;157883;-57
2022/08/11 02:29:32;;;;;;;847.25;786.85;;;;;;;21.97;42.40;101965.41;688440;28;138085;-57
2022/08/11 02:30:03;;;;;;;838.55;778.28;;;;;;;22.00;42.30;101966.88;687547;28;161216;-58
2022/08/11 02:30:27;;;;;;;831.70;771.75;;;;;;;22.00;42.40;101966.88;688333;28;137482;-58
2022/08/11 02:33:22;;;;;;;850.95;790.45;;;;;;;22.03;42.38;101966.44;691276;28;137666;-57
2022/08/11 02:33:47;;;;;;;856.78;796.08;;;;;;;22.02;42.34;101967.47;691308;28;136099;-58
2022/08/11 02:34:17;;;;;;;844.72;784.40;;;;;;;22.01;42.44;101974.91;692804;28;92999;-59
2022/08/11 02:34:45;;;;;;;828.97;769.03;;;;;;;22.00;42.45;101967.69;691079;28;137776;-57
2022/08/11 02:35:15;;;;;;;843.33;782.97;;;;;;;22.01;42.43;101968.56;688579;28;137646;-59
2022/08/11 02:35:41;;;;;;;841.10;780.85;;;;;;;22.01;42.42;101968.56;685289;28;160905;-58
2022/08/11 02:36:07;;;;;;;838.33;778.13;;;;;;;22.01;42.49;101968.56;685158;28;161180;-56
2022/08/11 02:36:37;;;;;;;835.83;775.72;;;;;;;22.00;42.38;101970.44;686000;28;137939;-58
2022/08/11 02:37:03;;;;;;;827.40;767.50;;;;;;;22.00;42.38;101964.94;686929;28;137767;-58